Stockton, CA (95205)

4:07 PM PST on November 28, 2014 (GMT -0800)
El Dorado and Essex | Change Station
CLOSE
Current Station
Personal Weather Station
Location: STOCKTON, CA
Elevation: 23 ft
Nearby Weather Stations

Elev 23 ft 37.99 °N, 121.30 °W | Updated 1 minute ago

Partly Cloudy
Partly Cloudy
63.0 °F
Feels Like 63.0 °F
N
0.7
Wind Variable Wind from North
Gusts 2.2 mph

Today
High -- | Low -- °F
--% Chance of Precip.
Yesterday
High -- | Low -- °F
Precip. -- in
6:59 AM 4:46 PM
Waxing Crescent, 45% visible
Pressure 29.88 in
Visibility 6.0 miles
Clouds Clear
Dew Point 49 °F
Humidity 61%
Rainfall 0.00 in
Snow Depth Not available.
UV 0 out of 12
Pollen 2.10 out of 12
Air Quality Not available.
Flu Activity Not available.
METAR KSCK 282355Z 00000KT 6SM HZ CLR 18/06 A2988 RMK AO2 SLP118 T01780061 10189 20061 56020

More Conditions Fewer Conditions

Pressure 29.88 in
Visibility 6.0 miles
Clouds Clear
Dew Point 49 °F
Humidity 61%
Rainfall 0.00 in
Snow Depth Not available.
UV 0 out of 12
Pollen 2.10 out of 12
Air Quality Not available.
Flu Activity Not available.
METAR KSCK 282355Z 00000KT 6SM HZ CLR 18/06 A2988 RMK AO2 SLP118 T01780061 10189 20061 56020

More Conditions Fewer Conditions

10-Day Weather Forecast

Almanac

Astronomy

Nov. 28, 2014 Rise Set
Actual Time
Civil Twilight
Nautical Twilight
Astronomical Twilight
Moon
Length of Visible Light
Length of Day
Tomorrow will be .
, % of the Moon is Illuminated

Today's Extremes

State Highs State Lows

Community

WunderPhotos

Upload Photos

1,774,342 photos uploaded!

WunderBlogs® & News

Nearby

Air Quality

  Air Quality AQ Index Pollutant
Not available.

Snow Depth

Station Depth Elevation

Earthquake Activity

City Distance Mag. Time & Date
Minimum magnitude displayed is 2.5.

Coastal Water Temperatures

Place Temperature

Nearby Weather Stations